Time;durP1;ratioP1;P1;durP2;ratioP2;P2;SDS_P1;SDS_P2;PMS_P1;PMS_P2;Temp;Humidity;BMP_temperature;BMP_pressure;BME280_temperature;BME280_humidity;BME280_pressure;Samples;Min_cycle;Max_cycle;Signal;HPM_P1;HPM_P2
2023/05/27 00:00:52;;;;;;;9.15;2.42;;;;;;;13.93;100.00;99461.66;5106341;28;20670;-76
2023/05/27 00:03:18;;;;;;;10.25;2.22;;;;;;;13.96;100.00;99452.25;5112973;28;20034;-73
2023/05/27 00:05:43;;;;;;;12.18;2.70;;;;;;;14.08;100.00;99439.72;5083484;28;20062;-74
2023/05/27 00:08:08;;;;;;;9.52;2.05;;;;;;;14.30;100.00;99448.47;5111378;28;20016;-73
2023/05/27 00:10:33;;;;;;;12.85;2.33;;;;;;;14.41;100.00;99479.69;5139564;27;20030;-75
2023/05/27 00:12:59;;;;;;;9.32;2.30;;;;;;;14.65;100.00;99459.94;5095405;28;20511;-75
2023/05/27 00:15:24;;;;;;;11.18;2.63;;;;;;;14.54;100.00;99459.75;5091132;28;20035;-73
2023/05/27 00:17:49;;;;;;;11.55;2.65;;;;;;;14.50;100.00;99453.06;5087278;28;20020;-74
2023/05/27 00:20:15;;;;;;;9.73;2.72;;;;;;;14.46;100.00;99453.47;5090781;28;20396;-74
2023/05/27 00:22:41;;;;;;;13.88;2.42;;;;;;;14.56;100.00;99460.38;5116740;28;20016;-73
2023/05/27 00:25:07;;;;;;;11.05;2.72;;;;;;;14.87;100.00;99460.50;5100037;28;20019;-74
2023/05/27 00:27:32;;;;;;;9.38;2.35;;;;;;;14.77;100.00;99464.72;5095472;28;20024;-74
2023/05/27 00:29:58;;;;;;;11.15;2.55;;;;;;;14.77;100.00;99472.91;5101112;28;20046;-74
2023/05/27 00:32:23;;;;;;;13.68;2.50;;;;;;;14.48;100.00;99453.25;5114357;28;20027;-73
2023/05/27 00:34:48;;;;;;;11.40;2.70;;;;;;;14.21;100.00;99433.41;5113357;28;20102;-73
2023/05/27 00:37:14;;;;;;;10.52;2.42;;;;;;;14.29;100.00;99462.28;5089572;28;20022;-74
2023/05/27 00:39:40;;;;;;;6.97;2.50;;;;;;;14.16;100.00;99447.66;5104216;28;20027;-73
2023/05/27 00:42:07;;;;;;;13.18;2.75;;;;;;;14.00;100.00;99453.53;5104004;28;20020;-73
2023/05/27 00:44:32;;;;;;;10.55;2.63;;;;;;;14.18;100.00;99464.59;5112890;28;20031;-73
2023/05/27 00:46:57;;;;;;;12.63;2.80;;;;;;;13.96;100.00;99471.31;5095142;28;20024;-73
2023/05/27 00:49:25;;;;;;;10.73;2.45;;;;;;;13.78;100.00;99451.03;5112534;28;20028;-73
2023/05/27 00:51:50;;;;;;;12.75;2.53;;;;;;;13.75;100.00;99464.16;5093549;28;20110;-74
2023/05/27 00:54:16;;;;;;;13.50;2.75;;;;;;;13.62;100.00;99456.84;5087256;28;20110;-73
2023/05/27 00:56:41;;;;;;;8.35;2.58;;;;;;;13.67;100.00;99473.38;5086201;28;20028;-75
2023/05/27 00:59:07;;;;;;;10.38;2.53;;;;;;;13.64;100.00;99465.63;5092947;28;20026;-74
2023/05/27 01:01:36;;;;;;;7.53;2.60;;;;;;;13.54;100.00;99465.19;5090677;28;20481;-75
2023/05/27 01:04:02;;;;;;;10.73;2.47;;;;;;;13.38;100.00;99461.81;5111282;28;20020;-77
2023/05/27 01:06:58;;;;;;;15.48;2.95;;;;;;;13.41;100.00;99454.28;5084853;28;20503;-76
2023/05/27 01:09:39;;;;;;;8.18;2.28;;;;;;;13.38;100.00;99461.81;5113467;28;20047;-76
2023/05/27 01:12:14;;;;;;;9.73;2.83;;;;;;;13.06;100.00;99432.66;5087547;28;20027;-79
2023/05/27 01:14:42;;;;;;;15.13;2.70;;;;;;;13.10;100.00;99458.38;5087624;28;20512;-77
2023/05/27 01:17:09;;;;;;;11.83;3.07;;;;;;;12.93;100.00;99439.69;5100713;28;20060;-74
2023/05/27 01:19:37;;;;;;;9.95;2.42;;;;;;;12.91;100.00;99449.91;5108329;28;20267;-74
2023/05/27 01:22:04;;;;;;;10.45;2.78;;;;;;;12.80;100.00;99455.94;5093571;28;20046;-75
2023/05/27 01:24:31;;;;;;;12.85;2.85;;;;;;;12.70;100.00;99464.44;5091363;28;20430;-75
2023/05/27 01:26:56;;;;;;;11.55;2.70;;;;;;;12.48;100.00;99446.59;5081770;28;20085;-75
2023/05/27 01:29:22;;;;;;;11.68;2.70;;;;;;;12.34;100.00;99431.25;5091451;28;20027;-74
2023/05/27 01:31:57;;;;;;;13.05;2.88;;;;;;;12.48;100.00;99460.16;5084947;28;20027;-75
2023/05/27 01:34:31;;;;;;;12.63;2.90;;;;;;;12.21;100.00;99415.75;5078620;28;20379;-74
2023/05/27 01:36:59;;;;;;;16.52;2.58;;;;;;;12.19;100.00;99417.81;5094357;27;20089;-76
2023/05/27 01:39:26;;;;;;;10.85;2.92;;;;;;;12.13;100.00;99429.44;5113594;27;20027;-74
2023/05/27 01:41:52;;;;;;;12.88;3.00;;;;;;;12.10;100.00;99435.25;5081293;28;20115;-74
2023/05/27 01:44:18;;;;;;;11.45;2.40;;;;;;;11.89;100.00;99412.56;5107985;28;20036;-74
2023/05/27 01:46:44;;;;;;;8.13;2.72;;;;;;;12.11;100.00;99453.22;5104638;28;20096;-74
2023/05/27 01:49:10;;;;;;;15.38;2.75;;;;;;;12.10;100.00;99446.94;5110304;28;20024;-75
2023/05/27 01:51:36;;;;;;;13.07;3.03;;;;;;;12.06;100.00;99449.22;5094493;28;20157;-75
2023/05/27 01:54:02;;;;;;;12.60;3.45;;;;;;;12.02;100.00;99439.78;5084493;28;20027;-74
2023/05/27 01:56:27;;;;;;;13.70;3.08;;;;;;;11.77;100.00;99409.56;5090080;28;20023;-75
2023/05/27 01:58:52;;;;;;;11.00;2.78;;;;;;;11.84;100.00;99442.13;5075454;28;20081;-80
2023/05/27 02:01:18;;;;;;;15.82;3.17;;;;;;;11.66;100.00;99426.34;5097878;28;20028;-74
2023/05/27 02:03:43;;;;;;;13.70;2.83;;;;;;;11.81;100.00;99437.94;5085961;28;20466;-74
2023/05/27 02:06:08;;;;;;;10.20;3.13;;;;;;;11.59;100.00;99409.19;5088678;28;20435;-78
2023/05/27 02:08:34;;;;;;;12.82;3.25;;;;;;;11.67;100.00;99438.88;5082792;28;20066;-76
2023/05/27 02:10:59;;;;;;;14.13;2.78;;;;;;;11.53;100.00;99435.19;5108284;27;20035;-75
2023/05/27 02:13:24;;;;;;;15.85;3.20;;;;;;;11.35;100.00;99426.69;5094337;28;20430;-74
2023/05/27 02:15:50;;;;;;;9.68;3.03;;;;;;;11.31;100.00;99428.09;5088671;28;20035;-76
2023/05/27 02:18:15;;;;;;;12.35;3.03;;;;;;;11.43;100.00;99439.25;5094258;27;20107;-75
2023/05/27 02:20:40;;;;;;;13.23;3.13;;;;;;;11.34;100.00;99427.69;5123474;27;20039;-74
2023/05/27 02:23:07;;;;;;;12.13;2.97;;;;;;;11.07;100.00;99400.34;5086128;28;20016;-74
2023/05/27 02:25:32;;;;;;;13.52;3.03;;;;;;;11.26;100.00;99425.13;5109432;28;20543;-74
2023/05/27 02:28:02;;;;;;;15.93;3.63;;;;;;;11.28;100.00;99431.19;5103341;28;20107;-74
2023/05/27 02:30:27;;;;;;;;;;;;;;;11.28;100.00;99431.19;5109051;28;20030;-74
2023/05/27 02:32:53;;;;;;;7.65;3.30;;;;;;;11.27;100.00;99427.66;5091363;28;20014;-74
2023/05/27 02:35:18;;;;;;;12.40;3.70;;;;;;;11.00;100.00;99396.72;5101338;28;20024;-74
2023/05/27 02:37:43;;;;;;;10.05;3.33;;;;;;;11.00;100.00;99421.06;5098701;27;20058;-74
2023/05/27 02:40:09;;;;;;;10.40;3.22;;;;;;;10.88;100.00;99428.88;5083991;28;20111;-75
2023/05/27 02:42:34;;;;;;;16.08;3.42;;;;;;;10.85;100.00;99418.44;5112383;28;20143;-75
2023/05/27 02:45:00;;;;;;;11.38;3.22;;;;;;;10.89;100.00;99424.28;5090475;28;20016;-74
2023/05/27 02:47:25;;;;;;;11.30;2.85;;;;;;;10.92;100.00;99432.03;5101764;28;20044;-74
2023/05/27 02:49:51;;;;;;;17.52;3.42;;;;;;;10.89;100.00;99438.66;5105300;28;20027;-74
2023/05/27 02:52:16;;;;;;;13.50;3.20;;;;;;;10.62;100.00;99420.44;5093890;28;20161;-77
2023/05/27 02:54:41;;;;;;;11.60;3.28;;;;;;;10.66;100.00;99409.03;5087385;28;20360;-74
2023/05/27 02:57:07;;;;;;;13.35;3.20;;;;;;;10.29;100.00;99362.13;5092249;28;20023;-75
2023/05/27 02:59:32;;;;;;;12.13;3.38;;;;;;;10.57;100.00;99429.09;5105725;28;20047;-77
2023/05/27 03:01:58;;;;;;;13.13;3.20;;;;;;;10.59;100.00;99427.06;5094866;28;20027;-75
2023/05/27 03:04:23;;;;;;;14.27;3.35;;;;;;;10.53;100.00;99431.34;5093868;28;20567;-81
2023/05/27 03:06:48;;;;;;;9.52;3.08;;;;;;;10.33;100.00;99411.31;5095197;28;20026;-75
2023/05/27 03:09:14;;;;;;;10.55;2.90;;;;;;;10.34;100.00;99418.38;5101018;28;20624;-75
2023/05/27 03:11:39;;;;;;;14.40;3.25;;;;;;;10.35;100.00;99411.09;5087110;28;20026;-75
2023/05/27 03:14:05;;;;;;;11.93;3.05;;;;;;;10.12;100.00;99403.91;5107900;28;20024;-78
2023/05/27 03:16:31;;;;;;;13.05;3.15;;;;;;;10.30;100.00;99442.25;5100999;28;20055;-76
2023/05/27 03:18:56;;;;;;;9.55;3.08;;;;;;;10.31;100.00;99441.22;5092204;28;20402;-75
2023/05/27 03:21:22;;;;;;;9.27;3.13;;;;;;;10.26;100.00;99449.03;5113348;28;20024;-77
2023/05/27 03:23:47;;;;;;;21.00;3.50;;;;;;;10.22;100.00;99445.03;5079093;28;20042;-75
2023/05/27 03:26:12;;;;;;;16.48;3.67;;;;;;;10.23;100.00;99443.16;5108345;28;20038;-74
2023/05/27 03:28:38;;;;;;;12.40;2.90;;;;;;;10.10;100.00;99432.97;5098584;28;20157;-74
2023/05/27 03:31:04;;;;;;;11.75;3.35;;;;;;;10.09;100.00;99432.16;5094888;28;20119;-77
2023/05/27 03:33:29;;;;;;;14.02;3.28;;;;;;;10.16;100.00;99447.63;5111639;28;20069;-77
2023/05/27 03:35:55;;;;;;;11.25;3.15;;;;;;;10.16;100.00;99432.22;5107610;28;20585;-75
2023/05/27 03:38:21;;;;;;;10.73;3.13;;;;;;;10.04;100.00;99423.75;5108851;28;20032;-77
2023/05/27 03:40:46;;;;;;;14.50;2.80;;;;;;;10.25;100.00;99443.81;5109211;28;20447;-76
2023/05/27 03:43:11;;;;;;;12.95;3.58;;;;;;;9.98;100.00;99400.16;5086841;28;20055;-75
2023/05/27 03:45:36;;;;;;;17.23;4.13;;;;;;;10.20;100.00;99446.25;5084249;28;20372;-77
2023/05/27 03:48:02;;;;;;;10.93;2.65;;;;;;;10.12;100.00;99428.22;5110716;28;20066;-77
2023/05/27 03:50:27;;;;;;;13.40;3.45;;;;;;;10.15;100.00;99427.84;5089894;28;20542;-75
2023/05/27 03:52:52;;;;;;;14.13;2.88;;;;;;;10.14;100.00;99428.91;5092015;28;20036;-76
2023/05/27 03:55:20;;;;;;;14.18;3.58;;;;;;;10.31;100.00;99443.94;5078543;28;20024;-76
2023/05/27 03:57:46;;;;;;;13.90;3.30;;;;;;;10.40;100.00;99442.00;5091303;28;20559;-76
2023/05/27 04:00:12;;;;;;;14.65;3.45;;;;;;;10.47;100.00;99447.47;5081281;28;20019;-78
2023/05/27 04:02:38;;;;;;;15.82;3.25;;;;;;;10.51;100.00;99452.34;5094837;28;20023;-77
2023/05/27 04:05:03;;;;;;;14.20;3.05;;;;;;;10.41;100.00;99430.13;5087176;28;20110;-77
2023/05/27 04:07:29;;;;;;;13.75;3.20;;;;;;;10.52;100.00;99443.19;5095250;28;20485;-76
2023/05/27 04:09:55;;;;;;;10.73;3.35;;;;;;;10.53;100.00;99444.88;5085279;28;20081;-75
2023/05/27 04:12:20;;;;;;;12.88;3.47;;;;;;;10.48;100.00;99431.06;5113389;28;20393;-76
2023/05/27 04:14:46;;;;;;;12.88;3.78;;;;;;;10.54;100.00;99443.00;5086028;28;20052;-74
2023/05/27 04:17:11;;;;;;;7.15;2.72;;;;;;;10.46;100.00;99437.69;5111721;27;20035;-75
2023/05/27 04:19:36;;;;;;;18.20;3.53;;;;;;;10.37;100.00;99414.47;5107367;28;20023;-74
2023/05/27 04:22:02;;;;;;;11.63;2.97;;;;;;;10.59;100.00;99437.88;5092270;28;20484;-73
2023/05/27 04:24:27;;;;;;;9.85;3.22;;;;;;;10.76;100.00;99433.09;5112994;28;20035;-74
2023/05/27 04:26:52;;;;;;;14.48;3.65;;;;;;;10.90;100.00;99436.81;5095836;28;20020;-74
2023/05/27 04:29:18;;;;;;;17.15;3.22;;;;;;;11.00;100.00;99425.66;5113063;28;20023;-74
2023/05/27 04:31:47;;;;;;;13.45;3.47;;;;;;;11.01;100.00;99417.38;5087447;28;20020;-73
2023/05/27 04:34:12;;;;;;;11.68;2.95;;;;;;;11.29;100.00;99438.28;5096612;28;20031;-73
2023/05/27 04:36:37;;;;;;;13.40;3.58;;;;;;;11.33;100.00;99436.88;5096895;28;20028;-81
2023/05/27 04:39:04;;;;;;;14.30;3.13;;;;;;;11.52;100.00;99436.22;5113268;28;20058;-75
2023/05/27 04:41:32;;;;;;;15.07;2.88;;;;;;;11.65;100.00;99434.66;5098493;28;20131;-73
2023/05/27 04:44:00;;;;;;;9.80;2.77;;;;;;;11.75;100.00;99440.59;5086398;28;20023;-73
2023/05/27 04:46:26;;;;;;;12.95;4.00;;;;;;;11.85;100.00;99441.09;5091393;28;20281;-73
2023/05/27 04:48:52;;;;;;;13.00;2.95;;;;;;;11.85;100.00;99416.69;5112130;28;20118;-74
2023/05/27 04:51:18;;;;;;;9.93;3.30;;;;;;;11.98;100.00;99418.72;5104144;28;20031;-74
2023/05/27 04:53:45;;;;;;;7.70;2.90;;;;;;;12.05;100.00;99415.00;5086586;28;20028;-73
2023/05/27 04:56:14;;;;;;;11.10;2.83;;;;;;;12.16;100.00;99410.91;5088960;27;20031;-73
2023/05/27 04:58:39;;;;;;;13.10;3.42;;;;;;;12.27;100.00;99421.19;5108158;27;20020;-73
2023/05/27 05:01:05;;;;;;;11.75;3.15;;;;;;;12.47;100.00;99426.75;5092625;28;20034;-69
2023/05/27 05:03:39;;;;;;;10.02;2.75;;;;;;;12.61;100.00;99411.38;5086861;28;20568;-71
2023/05/27 05:06:04;;;;;;;15.60;3.08;;;;;;;12.88;100.00;99427.78;5110688;28;20027;-79
2023/05/27 05:08:30;;;;;;;12.52;2.88;;;;;;;13.02;100.00;99431.38;5093580;28;20076;-76
2023/05/27 05:10:55;;;;;;;8.93;2.58;;;;;;;13.00;100.00;99414.47;5114508;28;20020;-77
2023/05/27 05:13:28;;;;;;;11.75;2.58;;;;;;;13.30;100.00;99429.38;5110909;28;20028;-74
2023/05/27 05:15:54;;;;;;;10.60;2.90;;;;;;;13.22;100.00;99415.13;5106210;28;20039;-77
2023/05/27 05:18:19;;;;;;;20.15;3.35;;;;;;;13.41;100.00;99421.69;5086818;28;20028;-74
2023/05/27 05:20:44;;;;;;;6.78;2.35;;;;;;;13.59;100.00;99420.03;5102683;28;20448;-74
2023/05/27 05:23:09;;;;;;;11.40;2.53;;;;;;;13.76;100.00;99417.75;5091647;28;20080;-75
2023/05/27 05:25:37;;;;;;;14.27;3.03;;;;;;;14.05;100.00;99434.69;5101334;28;20030;-75
2023/05/27 05:28:06;;;;;;;15.10;2.65;;;;;;;14.00;100.00;99399.94;5078709;28;20110;-76
2023/05/27 05:30:32;;;;;;;10.20;2.60;;;;;;;14.37;100.00;99434.84;5113587;28;20020;-75
2023/05/27 05:32:58;;;;;;;12.45;2.53;;;;;;;14.60;100.00;99427.06;5105388;28;20032;-76
2023/05/27 05:35:23;;;;;;;13.10;2.75;;;;;;;14.79;100.00;99428.06;5094951;28;20539;-78
2023/05/27 05:37:49;;;;;;;11.18;2.95;;;;;;;14.95;100.00;99425.91;5095096;28;20114;-72
2023/05/27 05:40:14;;;;;;;11.05;2.92;;;;;;;15.28;100.00;99433.91;5110824;28;20118;-72
2023/05/27 05:42:40;;;;;;;14.73;3.05;;;;;;;15.15;100.00;99423.91;5099832;28;20023;-73
2023/05/27 05:45:06;;;;;;;10.10;2.47;;;;;;;15.33;100.00;99410.38;5106925;27;20077;-73
2023/05/27 05:47:32;;;;;;;9.80;2.55;;;;;;;15.73;100.00;99428.41;5084017;28;20102;-73
2023/05/27 05:49:57;;;;;;;10.40;2.72;;;;;;;15.94;100.00;99428.00;5090940;28;20867;-72
2023/05/27 05:52:22;;;;;;;10.05;2.38;;;;;;;16.32;100.00;99427.03;5093695;28;20039;-72
2023/05/27 05:54:48;;;;;;;9.63;2.53;;;;;;;16.50;100.00;99425.38;5094766;28;20024;-73
2023/05/27 05:57:13;;;;;;;11.55;2.20;;;;;;;16.73;100.00;99436.47;5093709;28;20031;-72
2023/05/27 05:59:38;;;;;;;10.98;2.55;;;;;;;16.68;100.00;99411.72;5115996;27;20030;-73
2023/05/27 06:02:04;;;;;;;7.88;2.55;;;;;;;17.11;100.00;99421.75;5095387;28;20546;-72
2023/05/27 06:04:29;;;;;;;7.63;2.40;;;;;;;17.16;100.00;99410.94;5102521;28;20051;-72
2023/05/27 06:06:55;;;;;;;12.60;2.85;;;;;;;17.44;100.00;99423.16;5093354;27;20615;-73
2023/05/27 06:09:21;;;;;;;16.33;2.92;;;;;;;17.47;100.00;99422.69;5106351;27;20038;-73
2023/05/27 06:11:47;;;;;;;12.02;2.47;;;;;;;17.78;100.00;99432.53;5109571;27;20031;-73
2023/05/27 06:14:12;;;;;;;9.68;2.33;;;;;;;18.06;100.00;99436.53;5089830;28;20409;-73
2023/05/27 06:16:39;;;;;;;11.00;2.92;;;;;;;18.02;100.00;99433.44;5107887;28;20076;-72
2023/05/27 06:19:04;;;;;;;16.05;3.03;;;;;;;18.21;100.00;99414.16;5091209;28;20036;-72
2023/05/27 06:21:31;;;;;;;11.93;2.88;;;;;;;18.31;100.00;99422.59;5088338;28;20027;-72
2023/05/27 06:23:57;;;;;;;8.40;2.65;;;;;;;18.68;100.00;99420.44;5102353;27;20016;-72
2023/05/27 06:26:22;;;;;;;12.90;3.05;;;;;;;18.71;98.72;99425.44;5084183;28;20035;-72
2023/05/27 06:28:47;;;;;;;10.27;2.40;;;;;;;18.72;99.12;99410.63;5101176;28;20030;-73
2023/05/27 06:31:13;;;;;;;11.40;2.78;;;;;;;19.08;95.48;99410.59;5092832;28;20043;-74
2023/05/27 06:33:40;;;;;;;11.48;2.40;;;;;;;19.20;86.91;99422.31;5097299;28;20033;-74
2023/05/27 06:36:05;;;;;;;10.55;2.42;;;;;;;19.48;85.94;99416.81;5096427;28;20477;-74
2023/05/27 06:38:31;;;;;;;7.20;2.40;;;;;;;20.30;81.18;99409.13;5083040;28;20031;-75
2023/05/27 06:40:56;;;;;;;11.05;2.67;;;;;;;22.28;71.04;99400.63;5096417;28;20091;-77
2023/05/27 06:43:21;;;;;;;8.40;2.28;;;;;;;24.42;62.68;99396.72;5105323;28;20116;-78
2023/05/27 06:45:47;;;;;;;12.25;2.97;;;;;;;25.83;55.96;99401.03;5106570;28;20024;-76
2023/05/27 06:48:12;;;;;;;10.85;2.50;;;;;;;26.61;51.66;99407.56;5105819;28;20537;-74
2023/05/27 06:50:37;;;;;;;9.60;2.60;;;;;;;27.53;48.55;99398.88;5094947;28;20115;-75
2023/05/27 06:53:03;;;;;;;13.90;2.85;;;;;;;29.23;47.82;99407.81;5090843;28;20024;-75
2023/05/27 06:55:30;;;;;;;7.13;2.45;;;;;;;29.09;45.63;99407.84;5098594;28;20131;-74
2023/05/27 06:57:55;;;;;;;10.45;2.85;;;;;;;29.26;44.02;99405.22;5087905;28;20107;-74
2023/05/27 07:00:20;;;;;;;11.23;2.70;;;;;;;29.34;42.87;99400.03;5107133;28;20036;-74
2023/05/27 07:02:46;;;;;;;9.30;2.70;;;;;;;29.88;41.11;99404.63;5110963;28;20465;-75
2023/05/27 07:05:11;;;;;;;12.32;2.58;;;;;;;30.23;39.61;99399.31;5111280;28;20040;-75
2023/05/27 07:07:36;;;;;;;8.30;2.63;;;;;;;29.93;39.54;99389.75;5102631;28;20541;-74
2023/05/27 07:10:02;;;;;;;13.60;2.55;;;;;;;30.65;38.78;99391.47;5097175;28;20100;-74
2023/05/27 07:12:27;;;;;;;10.52;3.00;;;;;;;29.74;39.13;99397.47;5093930;28;20032;-74
2023/05/27 07:14:52;;;;;;;8.52;2.63;;;;;;;29.59;38.53;99405.03;5087914;28;20447;-74
2023/05/27 07:17:18;;;;;;;11.38;2.85;;;;;;;30.09;38.35;99404.94;5122429;28;20115;-75
2023/05/27 07:19:43;;;;;;;9.77;2.67;;;;;;;30.33;38.15;99401.81;5098741;28;20040;-74
2023/05/27 07:22:08;;;;;;;12.48;3.10;;;;;;;31.27;37.33;99403.69;5104081;28;20114;-74
2023/05/27 07:24:33;;;;;;;13.02;3.58;;;;;;;31.56;36.72;99398.28;5086207;28;20034;-75
2023/05/27 07:26:59;;;;;;;9.93;3.05;;;;;;;31.90;36.53;99402.22;5106023;28;20046;-76
2023/05/27 07:29:24;;;;;;;10.02;3.08;;;;;;;32.19;35.58;99398.75;5104588;28;20027;-78
2023/05/27 07:31:50;;;;;;;9.43;2.83;;;;;;;31.92;36.33;99399.94;5085378;28;20070;-77
2023/05/27 07:34:15;;;;;;;9.75;2.75;;;;;;;32.04;36.70;99397.31;5093533;28;20027;-79
2023/05/27 07:36:40;;;;;;;8.50;3.13;;;;;;;32.43;35.77;99388.97;5086655;28;20070;-78
2023/05/27 07:39:06;;;;;;;6.68;2.50;;;;;;;32.65;34.98;99362.72;5081160;28;20065;-79
2023/05/27 07:41:32;;;;;;;6.50;2.47;;;;;;;32.50;35.36;99395.72;5121038;28;20423;-77
2023/05/27 07:43:58;;;;;;;12.77;2.88;;;;;;;33.74;34.58;99370.25;5105772;28;20502;-73
2023/05/27 07:46:23;;;;;;;8.35;2.65;;;;;;;34.00;33.88;99386.84;5081506;28;20126;-73
2023/05/27 07:48:48;;;;;;;6.97;2.80;;;;;;;34.38;33.27;99393.44;5086127;28;20024;-73
2023/05/27 07:51:14;;;;;;;7.87;2.67;;;;;;;35.50;32.75;99382.66;5107975;28;20074;-73
2023/05/27 07:53:39;;;;;;;8.00;2.80;;;;;;;35.71;31.75;99381.66;5098202;28;20292;-73
2023/05/27 07:56:05;;;;;;;7.63;2.92;;;;;;;35.35;32.21;99391.84;5115599;27;20038;-72
2023/05/27 07:58:30;;;;;;;12.13;2.72;;;;;;;35.34;32.24;99387.34;5103710;28;20031;-73
2023/05/27 08:00:55;;;;;;;9.07;2.47;;;;;;;35.01;32.16;99374.28;5107026;28;20137;-72
2023/05/27 08:03:21;;;;;;;13.70;2.97;;;;;;;35.32;31.87;99378.47;5095946;28;20292;-79
2023/05/27 08:05:47;;;;;;;7.22;2.53;;;;;;;34.65;32.08;99361.84;5096052;28;20289;-78
2023/05/27 08:08:12;;;;;;;7.13;2.72;;;;;;;34.53;32.45;99361.81;5118524;28;20034;-80
2023/05/27 08:10:38;;;;;;;11.43;2.90;;;;;;;35.72;31.56;99360.78;5101664;28;20031;-78
2023/05/27 08:13:04;;;;;;;6.60;2.25;;;;;;;35.45;32.59;99366.00;5095334;28;20053;-79
2023/05/27 08:15:30;;;;;;;7.63;2.67;;;;;;;35.59;31.60;99354.38;5118054;28;20664;-76
2023/05/27 08:17:55;;;;;;;10.45;3.10;;;;;;;36.23;30.96;99355.38;5096715;28;20409;-78
2023/05/27 08:20:21;;;;;;;8.70;2.67;;;;;;;36.23;32.25;99346.09;5097798;28;20031;-76
2023/05/27 08:22:46;;;;;;;7.00;2.83;;;;;;;37.59;30.46;99347.38;5106478;28;20024;-73
2023/05/27 08:25:11;;;;;;;7.55;2.63;;;;;;;36.73;30.44;99358.66;5104720;28;20396;-75
2023/05/27 08:27:51;;;;;;;7.43;2.80;;;;;;;35.66;30.93;99363.03;5087965;28;20032;-75
2023/05/27 08:30:17;;;;;;;8.60;2.78;;;;;;;35.63;31.25;99357.28;5096092;28;20034;-74
2023/05/27 08:32:42;;;;;;;8.75;2.88;;;;;;;34.82;32.02;99357.16;5096905;28;20024;-75
2023/05/27 08:35:10;;;;;;;8.73;2.92;;;;;;;35.64;31.29;99353.31;5086020;28;20496;-76
2023/05/27 08:37:35;;;;;;;10.02;2.65;;;;;;;35.67;31.67;99336.50;5115215;28;20028;-75
2023/05/27 08:40:01;;;;;;;8.77;3.28;;;;;;;36.10;31.47;99336.91;5113991;28;20031;-75
2023/05/27 08:42:26;;;;;;;7.93;2.30;;;;;;;36.72;30.66;99338.13;5107656;27;20127;-72
2023/05/27 08:44:52;;;;;;;12.25;3.03;;;;;;;37.53;30.03;99343.22;5105526;27;20384;-72
2023/05/27 08:47:17;;;;;;;7.47;2.60;;;;;;;37.18;30.08;99335.59;5104031;27;20031;-71
2023/05/27 08:49:43;;;;;;;7.40;2.60;;;;;;;35.67;30.84;99330.06;5112514;28;20528;-72
2023/05/27 08:52:10;;;;;;;12.00;2.80;;;;;;;37.31;30.60;99332.63;5112080;28;20358;-72
2023/05/27 08:54:37;;;;;;;9.23;2.73;;;;;;;37.12;30.04;99339.88;5113115;28;20023;-72
2023/05/27 08:57:07;;;;;;;7.45;3.15;;;;;;;36.59;30.78;99342.22;5089237;28;20031;-72
2023/05/27 08:59:33;;;;;;;6.38;2.72;;;;;;;36.56;30.75;99331.69;5085616;28;20400;-72
2023/05/27 09:01:59;;;;;;;7.63;2.83;;;;;;;37.22;30.32;99313.91;5103956;28;20103;-73
2023/05/27 09:04:25;;;;;;;7.35;2.40;;;;;;;37.91;30.40;99324.59;5099132;28;20058;-72
2023/05/27 09:06:51;;;;;;;7.47;2.92;;;;;;;38.11;30.08;99331.88;5103306;28;20189;-72
2023/05/27 09:09:18;;;;;;;9.65;3.25;;;;;;;36.63;29.70;99331.88;5087220;28;20059;-72
2023/05/27 09:11:44;;;;;;;9.23;3.58;;;;;;;35.92;30.98;99313.84;5123901;27;20497;-73
2023/05/27 09:14:19;;;;;;;9.07;2.83;;;;;;;35.25;31.19;99305.91;5112646;28;20023;-72
2023/05/27 09:16:45;;;;;;;5.90;2.60;;;;;;;36.07;31.57;99301.00;5102474;28;20127;-73
2023/05/27 09:19:18;;;;;;;7.68;2.70;;;;;;;38.09;30.82;99317.31;5107300;28;20048;-73
2023/05/27 09:21:43;;;;;;;9.23;3.05;;;;;;;37.08;29.19;99302.31;5090430;28;20067;-73
2023/05/27 09:24:12;;;;;;;7.82;2.95;;;;;;;37.44;29.44;99294.59;5087926;28;20024;-73
2023/05/27 09:26:38;;;;;;;8.27;2.92;;;;;;;36.96;29.75;99311.69;5110987;28;20028;-73
2023/05/27 09:29:07;;;;;;;8.05;2.80;;;;;;;36.43;29.45;99309.19;5109659;28;20107;-73
2023/05/27 09:31:38;;;;;;;8.00;2.75;;;;;;;36.52;29.82;99297.72;5078223;28;20047;-72
2023/05/27 09:34:15;;;;;;;11.38;2.78;;;;;;;36.60;30.60;99307.22;5111279;27;20050;-73
2023/05/27 09:36:49;;;;;;;10.63;2.42;;;;;;;37.96;29.33;99296.03;5109228;28;20473;-73
2023/05/27 09:39:15;;;;;;;7.70;2.80;;;;;;;38.45;29.34;99300.19;5104575;27;20027;-73
2023/05/27 09:41:41;;;;;;;6.38;2.53;;;;;;;37.68;28.44;99285.84;5107649;28;20351;-70
2023/05/27 09:44:07;;;;;;;7.57;2.83;;;;;;;35.99;30.19;99291.53;5104677;27;20023;-72
2023/05/27 09:46:33;;;;;;;10.65;3.33;;;;;;;35.95;31.38;99285.81;5103445;28;20034;-72
2023/05/27 09:49:00;;;;;;;7.47;2.40;;;;;;;37.44;29.60;99291.78;5111628;28;21201;-72
2023/05/27 09:51:26;;;;;;;7.70;2.67;;;;;;;36.14;30.07;99285.13;5094661;28;20399;-73
2023/05/27 09:53:55;;;;;;;5.15;2.83;;;;;;;36.99;30.05;99287.56;5085669;28;20028;-73
2023/05/27 09:56:23;;;;;;;9.85;3.00;;;;;;;37.74;29.40;99271.44;5101390;28;20482;-72
2023/05/27 09:58:48;;;;;;;5.27;2.67;;;;;;;36.42;31.29;99262.47;5094050;28;20030;-73
2023/05/27 10:01:16;;;;;;;7.88;2.92;;;;;;;37.00;30.42;99261.81;5088339;28;20282;-73
2023/05/27 10:03:44;;;;;;;8.88;2.75;;;;;;;37.29;29.65;99283.03;5108480;28;20141;-73
2023/05/27 10:06:14;;;;;;;7.43;2.80;;;;;;;35.81;30.27;99265.69;5106184;27;20027;-72
2023/05/27 10:08:42;;;;;;;6.85;2.80;;;;;;;37.55;28.68;99255.34;5101779;28;20042;-72
2023/05/27 10:11:10;;;;;;;8.60;2.83;;;;;;;37.62;30.08;99247.81;5099445;28;20020;-72
2023/05/27 10:13:35;;;;;;;9.90;2.83;;;;;;;37.75;29.76;99267.41;5110286;28;20038;-73
2023/05/27 10:16:01;;;;;;;10.73;2.75;;;;;;;36.88;29.96;99270.41;5102146;28;20016;-73
2023/05/27 10:18:30;;;;;;;7.38;2.90;;;;;;;37.33;29.70;99265.34;5085403;28;20024;-73
2023/05/27 10:21:00;;;;;;;7.68;2.65;;;;;;;37.17;29.73;99254.94;5098288;28;20036;-74
2023/05/27 10:23:27;;;;;;;7.65;2.97;;;;;;;37.18;29.16;99242.50;5094296;28;20097;-74
2023/05/27 10:25:55;;;;;;;5.95;2.80;;;;;;;36.08;29.56;99254.75;5100736;28;20027;-74
2023/05/27 10:28:27;;;;;;;11.65;3.05;;;;;;;36.45;29.76;99238.38;5101182;27;20027;-74
2023/05/27 10:31:02;;;;;;;8.43;2.65;;;;;;;36.99;28.58;99250.91;5085181;28;20416;-73
2023/05/27 10:33:33;;;;;;;8.82;2.35;;;;;;;35.92;29.58;99254.72;5100278;28;20027;-74
2023/05/27 10:36:09;;;;;;;7.18;2.92;;;;;;;36.49;29.71;99252.56;5107954;28;20019;-74
2023/05/27 10:38:37;;;;;;;6.85;2.83;;;;;;;36.66;29.63;99257.84;5102090;28;20048;-74
2023/05/27 10:41:05;;;;;;;10.85;2.85;;;;;;;37.77;28.07;99256.56;5089681;28;20028;-74
2023/05/27 10:43:31;;;;;;;5.70;2.40;;;;;;;38.13;28.69;99244.72;5092998;28;20024;-74
2023/05/27 10:46:12;;;;;;;8.40;2.90;;;;;;;37.36;28.15;99233.56;5086453;28;20028;-74
2023/05/27 10:48:39;;;;;;;6.82;2.75;;;;;;;38.49;27.88;99245.34;5074015;28;20034;-73
2023/05/27 10:51:06;;;;;;;7.32;3.00;;;;;;;35.77;28.74;99247.91;5092588;28;20063;-73
2023/05/27 10:53:34;;;;;;;6.88;2.78;;;;;;;35.86;29.71;99240.09;5090097;28;20054;-72
2023/05/27 10:56:00;;;;;;;6.28;2.70;;;;;;;36.91;29.13;99241.47;5105891;28;20034;-74
2023/05/27 10:58:26;;;;;;;8.50;3.15;;;;;;;36.88;28.91;99227.28;5088696;28;20487;-74
2023/05/27 11:00:52;;;;;;;8.98;2.78;;;;;;;37.57;28.78;99222.69;5084794;28;20968;-75
2023/05/27 11:03:23;;;;;;;8.35;3.17;;;;;;;37.01;29.72;99214.69;5099216;27;20023;-74
2023/05/27 11:06:01;;;;;;;9.55;2.70;;;;;;;37.22;28.88;99229.25;5091334;28;20016;-75
2023/05/27 11:08:27;;;;;;;7.22;2.58;;;;;;;37.65;28.72;99232.97;5095004;28;20035;-74
2023/05/27 11:11:05;;;;;;;7.50;3.00;;;;;;;37.95;27.71;99215.31;5089624;28;20032;-75
2023/05/27 11:13:31;;;;;;;6.80;2.80;;;;;;;37.49;27.96;99233.03;5099022;28;20020;-74
2023/05/27 11:15:57;;;;;;;11.93;3.17;;;;;;;36.36;28.61;99230.09;5088525;28;20020;-75
2023/05/27 11:18:22;;;;;;;8.90;3.20;;;;;;;36.89;29.46;99217.63;5100958;28;20043;-73
2023/05/27 11:20:47;;;;;;;7.23;2.80;;;;;;;37.47;29.02;99220.47;5086100;28;20024;-74